メインページ
METAR-TAF:

METAR-TAF

空港 :

ケベック・シティー, ケベック州, カナダ

ケベック・ジャン・ルサージ国際空港

緯度: 46-48N, 経度: 071-23W, 海抜: 70m

現時点の気象観測

当レポートは16分前の16:16(UTC)に作成
南/南西の風 2kt
気温 2°C
湿度 93%
気圧 1012 hPa
視程: 1.6km
高度300ftの雲はほとんどない
高度1000ftの曇り

METAR: CYQB 221616Z 21002KT 1SM R06/P6000FT/U BR FEW003 OVC010 02/01 A2989 RMK SF1SF8 SF TR SLP128

時間: 11:32 (16:32 UTC)

予報

当レポートは27分前の16:05(UTC)に作成
予報は22日の 16時(UTC)から 23日の 12時(UTC)まで有効
変向風 3kt
視程: 0.8km
高度2500ftの曇り
小雨, 霧
22日の 16時(UTC)から 22日の 17時(UTC)まで一時的に
視程: 9.7km
22日の 17時(UTC)から 22日の 19時(UTC)まで徐々に
視程: 10km
高度2500ftの曇り
22日の 2100時(UTC)から
西の風 12kt、最大22ktの突風を伴う
視程: 10km
高度2500ftの千切れ雲あり
22日の 22時(UTC)から 22日の 24時(UTC)まで徐々に
西/北西の風 15kt、最大25ktの突風を伴う
高度4000ftの雲は散在している
23日の 0200時(UTC)から
西/北西の風 10kt
視程: 10km
高度4000ftの雲は散在している
23日の 06時(UTC)から 23日の 08時(UTC)まで徐々に
西の風 8kt

TAF: CYQB 221605Z 2216/2312 VRB03KT 1/2SM -RA FG OVC025 TEMPO 2216/2217 6SM BR BECMG 2217/2219 P6SM NSW OVC025 FM222100 26012G22KT P6SM BKN025 BECMG 2222/2224 29015G25KT SCT040 FM230200 30010KT P6SM SCT040 BECMG 2306/2308 26008KT RMK NXT FCST BY 221800Z

4,000以上の空港の気象観測と天気予報(METAR報とTAF報)

利用可能な観測所は地図上に黄色い丸と赤い丸で示す。

丸の上にカーソルを重ねると観測所名を参照できる。

次にクリックすると気象観測と天気予報を参照できる。

マップの切り替え:黒色「×」印の緑ボタンをクリックして拡大、「-」印の緑ボタンをクリックして縮小、緑色の三角印をクリックして隣りの地図に切り替え


METAR-TAF: